aviador You're here:

KMGM Decoded Metar

MONTGOMERY in AL, USA
Report Time2018-06-19 05:53:00
UTC Time2018-06-19 06:50:26
Flight Rules vfr VFR
Wind290° at 05 kt
W.Decomp.*RWY 28: 4.9 kt HW 1.0 kt RCW
RWY 21: 0.8 kt HW 4.9 kt RCW
W.Rank290° ranks 10
Current wind is below 290° avg. (7.1)
Visibility9999 m
Phenomena:N/A
Clouds:N/A
Expected CloudBase > 1,200 ft AGL from Temp-Dew spread
CeilingNone
Temp26°C (ISA +11)
Dew Point23°C (84% RH)
QNH1018 hPa
Density Alt1,726 ft
Elevation207 ft
Report Wrong Elevation
Raw Report
METAR KMGM 190553Z AUTO 29005KT 10SM CLR 26/23 A3005 RMK AO2 SLP173
T02560228 10322 20256 403440217 58009=

Extra information for KMGM:More info

Metar Taf Metar & Taf Last 4 Metars F.Rules Stats Wind Profile Meteogram Temp Stats Airport Information Weather charts Add Link Nearby VenuesMetar ALERT Operation Metar Decoded Social comments

AIRNAV info for KMGM